Πλησιέστερες Αναφορές METAR

 

LGTS - Thessaloniki/Makedonia-Elev 7m
Distance from station: Ν 13km
Ενημερώθηκε: 24/01/2022 03:50
Few Clouds
Few Clouds
 Ανεμος από Β
Ανεμος: Β 19 km/h
Θερμοκρασία: 0°C
Wind Chill: -5°C
Σημείο Δρόσου: -8°C
Υγρασία: 55%
Βαρόμετρο: 1025 hPa
Clouds: Few Clouds
Visibility: 10 km
Cloud details: Few Clouds 762 m
2022/01/24 01:50 LGTS 240150Z 35010KT 9999 FEW025 M00/M08 Q1025 NOSIG
LGAV - Athens/Elef. Venizelos-Elev 94m
Distance from station: ΝΝΑ 312km
Ενημερώθηκε: 24/01/2022 03:50
Μερικώς νεφελώδης
Μερικώς νεφελώδης
 Ανεμος από Β
Ανεμος: Β 17 km/h
Θερμοκρασία: 2°C
Wind Chill: -2°C
Σημείο Δρόσου: -5°C
Υγρασία: 60%
Βαρόμετρο: 1020 hPa
Clouds: Μερικώς νεφελώδης
Visibility: 10 km
Cloud details: Μερικώς νεφελώδης 762 m
2022/01/24 01:50 LGAV 240150Z 36009KT 330V050 9999 SCT025 02/M05 Q1020 NOSIG
 
LGAL - Alexandroupolis-Elev 3m
Distance from station: Α 251km
Ενημερώθηκε: 24/01/2022 03:50
Few Clouds
Few Clouds
 Ανεμος από Β
Ανεμος: Β 11 km/h
Θερμοκρασία: -1°C
Wind Chill: -5°C
Σημείο Δρόσου: -4°C
Υγρασία: 80%
Βαρόμετρο: 1024 hPa
Clouds: Few Clouds
Visibility: 10 km
Cloud details: Few Clouds 610 m
2022/01/24 01:50 LGAL 240150Z 01006KT 9999 FEW020 M01/M04 Q1024
LGKV - Kavala/Crysoupolis-Elev 5m
Distance from station: ΑΒΑ 144km
Ενημερώθηκε: 23/01/2022 20:20
Μη Ενημερωμένο!
Light snow, Συννεφιά
Light snow, Συννεφιά
 Ανεμος από ΒΑ
Ανεμος: ΒΑ 13 km/h
Θερμοκρασία: 1°C
Wind Chill: -3°C
Σημείο Δρόσου: -5°C
Υγρασία: 65%
Βαρόμετρο: 1023 hPa
Συνθήκες: Light Snow
Clouds: Συννεφιά
Visibility: 10 km
Cloud details: Few Clouds 457 m
Συννεφιά 762 m
2022/01/23 18:20 LGKV 231820Z 05007KT 9999 -SN FEW015 OVC025 01/M05 Q1023
 
LGSK - Skiathos Island-Elev 15m
Distance from station: ΝΝΑ 168km
Ενημερώθηκε: 23/01/2022 12:50
Μη Ενημερωμένο!
Σχεδόν νεφελώδης
Σχεδόν νεφελώδης
 Ανεμος από ΒΒΔ
Ανεμος: ΒΒΔ 24 km/h
Θερμοκρασία: 5°C
Wind Chill: 1°C
Σημείο Δρόσου: -5°C
Υγρασία: 49%
Βαρόμετρο: 1022 hPa
Clouds: Σχεδόν νεφελώδης
Visibility: 10 km
Cloud details: Few Clouds 549 m
Σχεδόν νεφελώδης 762 m
2022/01/23 10:50 LGSK 231050Z 34013KT 9999 FEW018 BKN025 05/M05 Q1022
LGLM - Limnos Island-Elev 5m
Distance from station: ΑΝΑ 210km
Ενημερώθηκε: 24/01/2022 03:50
Χιόνι, Σχεδόν νεφελώδης
Χιόνι, Σχεδόν νεφελώδης
 Ανεμος από ΑΒΑ
Ανεμος: ΑΒΑ 17 km/h
Θερμοκρασία: 0°C
Wind Chill: -4°C
Σημείο Δρόσου: -5°C
Υγρασία: 69%
Βαρόμετρο: 1022 hPa
Συνθήκες: Χιόνι
Clouds: Σχεδόν νεφελώδης
Visibility: 9 km
Cloud details: Μερικώς νεφελώδης 244 m
Σχεδόν νεφελώδης 457 m
2022/01/24 01:50 LGLM 240150Z 07009KT 9000 SN SCT008 BKN015 M00/M05 Q1022
 
LGMT - Mitilini Island-Elev 17m
Distance from station: ΑΝΑ 358km
Ενημερώθηκε: 23/01/2022 22:50
Μη Ενημερωμένο!
Σχεδόν νεφελώδης
Σχεδόν νεφελώδης
 Ανεμος από ΑΒΑ
Ανεμος: ΑΒΑ 19 km/h
Θερμοκρασία: 3°C
Wind Chill: -2°C
Σημείο Δρόσου: -4°C
Υγρασία: 60%
Βαρόμετρο: 1022 hPa
Clouds: Σχεδόν νεφελώδης
Visibility: 10 km
Cloud details: Σχεδόν νεφελώδης 610 m
2022/01/23 20:50 LGMT 232050Z 06010KT 9999 BKN020 03/M04 Q1022
LGSY - Skiros Island-Elev 15m
Distance from station: ΝΑ 227km
Ενημερώθηκε: 23/01/2022 19:50
Μη Ενημερωμένο!
Μερικώς νεφελώδης
Μερικώς νεφελώδης
 Ανεμος από Β
Ανεμος: Β 11 km/h
Θερμοκρασία: 4°C
Wind Chill: 1°C
Σημείο Δρόσου: -5°C
Υγρασία: 52%
Βαρόμετρο: 1022 hPa
Clouds: Μερικώς νεφελώδης
Visibility: 10 km
Cloud details: Few Clouds 549 m
Μερικώς νεφελώδης 914 m
2022/01/23 17:50 LGSY 231750Z 35006KT 9999 FEW018TCU SCT030 04/M05 Q1022 BLU
 
LGKZ - Kozani-Elev 628m
Distance from station: ΔΝΔ 102km
Ενημερώθηκε: 24/01/2022 03:50

 Ανεμος από Β
Ανεμος: Β 19 km/h
Θερμοκρασία: -7°C
Wind Chill: -14°C
Σημείο Δρόσου: -13°C
Υγρασία: 63%
Βαρόμετρο: 1021 hPa
2022/01/24 01:50 LGKZ 240150Z AUTO 35010KT //// // ////// M07/M13 Q1021 RE//
LGIO - Ioannina-Elev 476m
Distance from station: ΔΝΔ 209km
Ενημερώθηκε: 24/01/2022 03:50

 Ανεμος από varies
Ανεμος: varies 6 km/h
Θερμοκρασία: -2°C
Σημείο Δρόσου: -15°C
Υγρασία: 37%
Βαρόμετρο: 1020 hPa
2022/01/24 01:50 LGIO 240150Z AUTO VRB03KT //// // ////// M02/M15 Q1020 RE//
 
LGZA - Zakinthos-Elev 3m
Distance from station: ΝΝΔ 367km
Ενημερώθηκε: 23/01/2022 19:50
Μη Ενημερωμένο!
Few Clouds
Few Clouds
 Ανεμος από calm
Ανεμος: Απνοια
Θερμοκρασία: 2°C
Σημείο Δρόσου: -2°C
Υγρασία: 75%
Βαρόμετρο: 1022 hPa
Clouds: Few Clouds
Visibility: 10 km
Cloud details: Few Clouds 549 m
2022/01/23 17:50 LGZA 231750Z 00000KT 9999 FEW018 02/M02 Q1022
LGKR - Corfu Island-Elev 2m
Distance from station: ΔΝΔ 282km
Ενημερώθηκε: 24/01/2022 01:50
Μη Ενημερωμένο!
Few Clouds
Few Clouds
 Ανεμος από Α
Ανεμος: Α 7 km/h
Θερμοκρασία: 5°C
Wind Chill: 3°C
Σημείο Δρόσου: -11°C
Υγρασία: 31%
Βαρόμετρο: 1021 hPa
Clouds: Few Clouds
Visibility: 10 km
Cloud details: Few Clouds 762 m
2022/01/23 23:50 LGKR 232350Z 09004KT 9999 FEW025 05/M11 Q1021 NOSIG
 
LGSO - Syros Island-Elev 72m
Distance from station: ΝΝΑ 397km
Ενημερώθηκε: 24/01/2022 00:50
Μη Ενημερωμένο!

 
2022/01/23 22:50 LGSO 232250Z AUTO 010//KT //// // ////// 03/// Q1020 RE//
LGMK - Mikonos Island-Elev 123m
Distance from station: ΝΝΑ 412km
Ενημερώθηκε: 23/01/2022 19:50
Μη Ενημερωμένο!
Μερικώς νεφελώδης
Μερικώς νεφελώδης
 Ανεμος από Β
Ανεμος: Β 11 km/h
Θερμοκρασία: 2°C
Wind Chill: -1°C
Σημείο Δρόσου: -1°C
Υγρασία: 81%
Βαρόμετρο: 1020 hPa
Clouds: Μερικώς νεφελώδης
Visibility: 10 km
Cloud details: Μερικώς νεφελώδης 244 m
Μερικώς νεφελώδης 610 m
2022/01/23 17:50 LGMK 231750Z 01006KT 9999 SCT008 SCT020 02/M01 Q1020
 
LGSR - Santorini Island-Elev 40m
Distance from station: ΝΝΑ 520km
Ενημερώθηκε: 23/01/2022 19:50
Μη Ενημερωμένο!
Σχεδόν νεφελώδης
Σχεδόν νεφελώδης
 Ανεμος από Β
Ανεμος: Β 31 km/h
Θερμοκρασία: 4°C
Wind Chill: -2°C
Σημείο Δρόσου: 1°C
Υγρασία: 81%
Βαρόμετρο: 1021 hPa
Clouds: Σχεδόν νεφελώδης
Visibility: 10 km
Cloud details: Σχεδόν νεφελώδης 610 m
2022/01/23 17:50 LGSR 231750Z 36017KT 9999 BKN020 04/01 Q1021
LGKL - Kalamata-Elev 8m
Distance from station: Ν 405km
Ενημερώθηκε: 24/01/2022 03:50

 Ανεμος από varies
Ανεμος: varies 6 km/h
Θερμοκρασία: -1°C
Σημείο Δρόσου: -4°C
Υγρασία: 80%
Βαρόμετρο: 1019 hPa
2022/01/24 01:50 LGKL 240150Z AUTO VRB03KT //// // ////// M01/M04 Q1019 RE//
 
LGIR - Iraklion/Crete-Elev 5m
Distance from station: ΝΝΑ 622km
Ενημερώθηκε: 24/01/2022 03:50
Μερικώς νεφελώδης
Μερικώς νεφελώδης
 Ανεμος από ΝΝΑ
Ανεμος: ΝΝΑ 7 km/h
Θερμοκρασία: 2°C
Wind Chill: 0°C
Σημείο Δρόσου: 1°C
Υγρασία: 93%
Βαρόμετρο: 1020 hPa
Clouds: Μερικώς νεφελώδης
Visibility: 10 km
Cloud details: Few Clouds 305 m
Μερικώς νεφελώδης 762 m
2022/01/24 01:50 LGIR 240150Z 16004KT 9999 FEW010 SCT025 02/01 Q1020 NOSIG
LGRP - Rhodes-Elev 5m
Distance from station: ΝΑ 649km
Ενημερώθηκε: 24/01/2022 03:50
Μερικώς νεφελώδης
Μερικώς νεφελώδης
 Ανεμος από varies
Ανεμος: varies 6 km/h
Θερμοκρασία: 4°C
Σημείο Δρόσου: -5°C
Υγρασία: 52%
Βαρόμετρο: 1018 hPa
Clouds: Μερικώς νεφελώδης
Visibility: 10 km
Cloud details: Μερικώς νεφελώδης 610 m
2022/01/24 01:50 LGRP 240150Z VRB03KT 9999 SCT020 04/M05 Q1018 NOSIG
 
LWOH - Ohrid/FYROM-Elev 761m
Distance from station: ΔΒΔ 188km
Ενημερώθηκε: 23/01/2022 22:00
Μη Ενημερωμένο!
Μερικώς νεφελώδης
Μερικώς νεφελώδης
 Ανεμος από ΒΔ
Ανεμος: ΒΔ 11 km/h
Θερμοκρασία: -7°C
Wind Chill: -12°C
Σημείο Δρόσου: -14°C
Υγρασία: 58%
Βαρόμετρο: 1021 hPa
Clouds: Μερικώς νεφελώδης
Visibility: 10 km
Cloud details: Μερικώς νεφελώδης 1524 m
Μερικώς νεφελώδης 2743 m
2022/01/23 20:00 LWOH 232000Z 31006KT 9999 SCT050 SCT090 M07/M14 Q1021
LBSF - Sofia/Bulgaria-Elev 595m
Distance from station: Β 227km
Ενημερώθηκε: 24/01/2022 04:00
Σχεδόν νεφελώδης
Σχεδόν νεφελώδης
 Ανεμος από Δ
Ανεμος: Δ 9 km/h
Θερμοκρασία: -9°C
Wind Chill: -14°C
Σημείο Δρόσου: -10°C
Υγρασία: 93%
Βαρόμετρο: 1023 hPa
Clouds: Σχεδόν νεφελώδης
Visibility: 10 km
Cloud details: Μερικώς νεφελώδης 1006 m
Σχεδόν νεφελώδης 1829 m
2022/01/24 02:00 LBSF 240200Z 28005KT 9999 SCT033 BKN060 M09/M10 Q1023 NOSIG
Σημερινά ρεκόρ Μετεωρολογικού Σταθμού
Η Ελάχιστη Θερμοκρασία των -8°C ξεπέρασε τη Ελάχιστη Ετήσια τιμή των -7°C που σημειώθηκε στις 23/01/2022 κατά -1°